createdAt,value
2023-05-09T00:01:40.139Z,26.52
2023-05-09T00:04:06.833Z,26.65
2023-05-09T00:06:33.709Z,26.33
2023-05-09T00:09:00.314Z,25.92
2023-05-09T00:11:27.166Z,24.73
2023-05-09T00:13:53.704Z,27.95
2023-05-09T00:16:20.665Z,25.85
2023-05-09T00:18:47.341Z,26.85
2023-05-09T00:21:13.900Z,24.52
2023-05-09T00:23:41.069Z,26.65
2023-05-09T00:26:07.691Z,26.00
2023-05-09T00:28:34.288Z,25.60
2023-05-09T00:31:00.819Z,26.38
2023-05-09T00:33:27.452Z,24.98
2023-05-09T00:35:54.476Z,26.50
2023-05-09T00:38:22.397Z,26.33
2023-05-09T00:40:49.050Z,25.77
2023-05-09T00:43:16.831Z,25.13
2023-05-09T00:45:46.400Z,27.13
2023-05-09T00:48:14.470Z,27.38
2023-05-09T00:50:41.308Z,25.23
2023-05-09T00:53:09.108Z,27.10
2023-05-09T00:55:35.976Z,27.15
2023-05-09T00:58:03.657Z,27.17
2023-05-09T01:00:30.241Z,25.20
2023-05-09T01:02:57.254Z,24.73
2023-05-09T01:05:30.682Z,27.10
2023-05-09T01:08:07.538Z,26.88
2023-05-09T01:10:34.054Z,26.75
2023-05-09T01:13:33.043Z,25.38
2023-05-09T01:16:18.565Z,23.40
2023-05-09T01:19:00.397Z,26.65
2023-05-09T01:21:30.167Z,24.48
2023-05-09T01:24:14.934Z,25.85
2023-05-09T01:26:58.293Z,26.92
2023-05-09T01:29:42.428Z,26.30
2023-05-09T01:32:12.570Z,26.27
2023-05-09T01:34:41.316Z,25.25
2023-05-09T01:37:09.590Z,23.65
2023-05-09T01:39:39.971Z,26.60
2023-05-09T01:42:09.834Z,25.02
2023-05-09T01:44:40.078Z,27.48
2023-05-09T01:47:08.020Z,25.73
2023-05-09T01:49:37.699Z,27.58
2023-05-09T01:52:08.187Z,27.45
2023-05-09T01:54:37.104Z,27.13
2023-05-09T01:57:06.040Z,28.50
2023-05-09T01:59:34.416Z,26.85
2023-05-09T02:02:03.750Z,28.42
2023-05-09T02:04:31.174Z,26.75
2023-05-09T02:06:58.929Z,28.77
2023-05-09T02:09:26.066Z,28.02
2023-05-09T02:11:52.755Z,27.90
2023-05-09T02:14:19.388Z,27.55
2023-05-09T02:16:46.104Z,27.55
2023-05-09T02:19:12.701Z,27.65
2023-05-09T02:21:39.440Z,25.92
2023-05-09T02:24:06.460Z,27.60
2023-05-09T02:26:34.354Z,28.73
2023-05-09T02:29:03.304Z,29.42
2023-05-09T02:31:31.857Z,28.55
2023-05-09T02:33:59.277Z,27.67
2023-05-09T02:36:26.388Z,29.10
2023-05-09T02:38:53.151Z,28.38
2023-05-09T02:41:19.702Z,27.77
2023-05-09T02:43:46.688Z,29.00
2023-05-09T02:46:13.360Z,28.10
2023-05-09T02:48:40.032Z,29.05
2023-05-09T02:51:06.654Z,29.80
2023-05-09T02:53:33.400Z,28.77
2023-05-09T02:55:59.901Z,27.63
2023-05-09T02:58:26.496Z,28.15
2023-05-09T03:00:53.036Z,26.52
2023-05-09T03:03:19.741Z,27.27
2023-05-09T03:05:46.455Z,27.65
2023-05-09T03:08:13.061Z,25.73
2023-05-09T03:10:39.616Z,28.00
2023-05-09T03:13:06.208Z,28.40
2023-05-09T03:15:32.773Z,25.92
2023-05-09T03:17:59.397Z,27.38
2023-05-09T03:20:26.841Z,27.00
2023-05-09T03:22:53.355Z,26.80
2023-05-09T03:25:19.995Z,26.77
2023-05-09T03:27:46.546Z,26.90
2023-05-09T03:30:13.680Z,23.92
2023-05-09T03:32:40.221Z,28.80
2023-05-09T03:35:07.294Z,26.70
2023-05-09T03:37:33.841Z,24.85
2023-05-09T03:40:00.405Z,25.35
2023-05-09T03:42:26.918Z,24.42
2023-05-09T03:44:53.502Z,24.77
2023-05-09T03:47:20.058Z,24.27
2023-05-09T03:49:46.794Z,24.08
2023-05-09T03:52:13.420Z,25.52
2023-05-09T03:54:39.998Z,25.35
2023-05-09T03:57:07.153Z,25.10
2023-05-09T03:59:33.688Z,24.08
2023-05-09T04:02:00.276Z,22.63
2023-05-09T04:04:27.460Z,24.45
2023-05-09T04:06:54.104Z,25.15
2023-05-09T04:09:20.742Z,23.40
2023-05-09T04:11:47.324Z,24.73
2023-05-09T04:14:13.922Z,21.67
2023-05-09T04:16:40.505Z,24.08
2023-05-09T04:19:07.338Z,21.35
2023-05-09T04:21:33.893Z,23.90
2023-05-09T04:24:00.749Z,22.90
2023-05-09T04:26:27.341Z,22.20
2023-05-09T04:28:53.905Z,21.95
2023-05-09T04:31:21.347Z,22.58
2023-05-09T04:33:47.985Z,21.13
2023-05-09T04:36:14.564Z,21.90
2023-05-09T04:38:41.333Z,22.13
2023-05-09T04:41:07.856Z,20.55
2023-05-09T04:43:34.398Z,19.90
2023-05-09T04:46:01.336Z,19.77
2023-05-09T04:48:28.025Z,19.92
2023-05-09T04:50:54.587Z,19.85
2023-05-09T04:53:21.107Z,19.90
2023-05-09T04:55:47.662Z,20.75
2023-05-09T04:58:14.196Z,17.63
2023-05-09T05:00:41.084Z,18.33
2023-05-09T05:03:07.649Z,16.67
2023-05-09T05:05:37.145Z,16.35
2023-05-09T05:08:04.508Z,15.75
2023-05-09T05:10:31.047Z,16.35
2023-05-09T05:12:57.651Z,16.83
2023-05-09T05:15:24.262Z,16.65
2023-05-09T05:17:50.831Z,15.93
2023-05-09T05:20:17.511Z,15.90
2023-05-09T05:22:44.414Z,15.95
2023-05-09T05:25:11.619Z,16.20
2023-05-09T05:27:38.143Z,13.77
2023-05-09T05:30:05.224Z,15.77
2023-05-09T05:32:31.778Z,15.40
2023-05-09T05:34:58.379Z,16.48
2023-05-09T05:37:24.908Z,16.05
2023-05-09T05:39:51.649Z,15.50
2023-05-09T05:42:18.432Z,15.88
2023-05-09T05:44:44.973Z,14.43
2023-05-09T05:47:11.481Z,16.00
2023-05-09T05:49:38.558Z,14.98
2023-05-09T05:52:05.238Z,15.35
2023-05-09T05:54:31.787Z,14.57
2023-05-09T05:56:58.329Z,14.63
2023-05-09T05:59:24.849Z,14.43
2023-05-09T06:01:51.468Z,15.60
2023-05-09T06:04:18.050Z,13.70
2023-05-09T06:06:44.598Z,12.85
2023-05-09T06:09:11.122Z,13.52
2023-05-09T06:11:37.721Z,13.93
2023-05-09T06:14:04.252Z,13.95
2023-05-09T06:16:31.031Z,15.07
2023-05-09T06:18:57.734Z,13.38
2023-05-09T06:21:24.340Z,12.90
2023-05-09T06:24:07.774Z,13.52
2023-05-09T06:26:37.701Z,14.05
2023-05-09T06:29:06.034Z,13.35
2023-05-09T06:31:33.244Z,13.43
2023-05-09T06:33:59.806Z,14.65
2023-05-09T06:36:26.484Z,14.30
2023-05-09T06:38:52.996Z,13.77
2023-05-09T06:41:19.534Z,14.55
2023-05-09T06:43:46.073Z,14.70
2023-05-09T06:46:12.634Z,14.02
2023-05-09T06:48:39.335Z,14.68
2023-05-09T06:51:05.892Z,14.05
2023-05-09T06:53:32.456Z,13.85
2023-05-09T06:55:59.388Z,13.85
2023-05-09T06:58:27.530Z,13.95
2023-05-09T07:00:54.303Z,14.18
2023-05-09T07:03:21.054Z,13.63
2023-05-09T07:05:47.673Z,14.15
2023-05-09T07:08:14.208Z,14.75
2023-05-09T07:10:40.775Z,14.38
2023-05-09T07:13:07.365Z,13.30
2023-05-09T07:15:41.813Z,14.10
2023-05-09T07:18:09.545Z,13.63
2023-05-09T07:20:36.446Z,14.85
2023-05-09T07:23:04.209Z,13.52
2023-05-09T07:25:30.808Z,13.68
2023-05-09T07:27:58.057Z,13.60
2023-05-09T07:30:25.052Z,12.27
2023-05-09T07:32:52.050Z,14.02
2023-05-09T07:35:19.887Z,12.27
2023-05-09T07:37:46.481Z,12.82
2023-05-09T07:40:13.828Z,11.30
2023-05-09T07:42:40.713Z,12.85
2023-05-09T07:45:07.879Z,12.02
2023-05-09T07:47:34.684Z,12.73
2023-05-09T07:50:01.420Z,11.70
2023-05-09T07:52:27.925Z,12.52
2023-05-09T07:54:54.732Z,11.63
2023-05-09T07:57:21.373Z,12.52
2023-05-09T07:59:47.895Z,12.40
2023-05-09T08:02:14.484Z,12.93
2023-05-09T08:04:41.726Z,12.40
2023-05-09T08:07:09.161Z,12.13
2023-05-09T08:09:35.935Z,11.95
2023-05-09T08:12:02.536Z,11.30
2023-05-09T08:14:29.755Z,11.90
2023-05-09T08:16:56.310Z,11.63
2023-05-09T08:19:26.099Z,10.70
2023-05-09T08:21:53.359Z,11.35
2023-05-09T08:24:20.281Z,11.77
2023-05-09T08:26:46.945Z,10.90
2023-05-09T08:29:13.540Z,10.93
2023-05-09T08:31:40.125Z,10.68
2023-05-09T08:34:06.704Z,10.32
2023-05-09T08:36:33.893Z,10.77
2023-05-09T08:39:00.500Z,10.15
2023-05-09T08:41:28.312Z,10.00
2023-05-09T08:43:55.945Z,10.00
2023-05-09T08:46:33.932Z,9.80
2023-05-09T08:49:01.094Z,9.13
2023-05-09T08:51:30.140Z,9.63
2023-05-09T08:53:56.727Z,9.98
2023-05-09T08:56:23.757Z,9.45
2023-05-09T08:58:50.493Z,9.40
2023-05-09T09:01:17.619Z,9.65
2023-05-09T09:03:47.750Z,9.63
2023-05-09T09:06:14.522Z,8.60
2023-05-09T09:08:41.868Z,8.30
2023-05-09T09:11:12.093Z,8.88
2023-05-09T09:13:41.078Z,8.82
2023-05-09T09:16:23.102Z,9.00
2023-05-09T09:18:52.591Z,8.77
2023-05-09T09:21:20.219Z,8.40
2023-05-09T09:23:48.285Z,8.07
2023-05-09T09:26:15.013Z,8.05
2023-05-09T09:28:42.532Z,7.28
2023-05-09T09:31:23.800Z,5.70
2023-05-09T09:33:51.165Z,6.32
2023-05-09T09:36:28.028Z,6.03
2023-05-09T09:39:01.647Z,5.85
2023-05-09T09:41:32.829Z,4.93
2023-05-09T09:43:59.401Z,5.80
2023-05-09T09:46:26.179Z,5.80
2023-05-09T09:48:56.718Z,4.60
2023-05-09T09:51:28.902Z,4.40
2023-05-09T09:53:55.772Z,4.50
2023-05-09T09:56:22.396Z,4.40
2023-05-09T09:58:49.001Z,5.75
2023-05-09T10:01:16.790Z,5.43
2023-05-09T10:03:48.277Z,6.13
2023-05-09T10:06:16.558Z,5.28
2023-05-09T10:08:48.917Z,5.15
2023-05-09T10:11:15.844Z,5.28
2023-05-09T10:13:43.715Z,4.75
2023-05-09T10:16:11.446Z,4.72
2023-05-09T10:18:41.202Z,4.82
2023-05-09T10:21:10.589Z,4.82
2023-05-09T10:23:38.453Z,5.78
2023-05-09T10:26:14.138Z,4.50
2023-05-09T10:28:42.091Z,4.93
2023-05-09T10:31:29.468Z,4.55
2023-05-09T10:33:56.623Z,4.00
2023-05-09T10:36:26.063Z,4.78
2023-05-09T10:38:56.325Z,4.90
2023-05-09T10:41:23.828Z,4.32
2023-05-09T10:43:50.583Z,3.60
2023-05-09T10:46:17.950Z,3.80
2023-05-09T10:48:45.170Z,4.25
2023-05-09T10:51:13.125Z,3.47
2023-05-09T10:53:48.595Z,3.97
2023-05-09T10:56:26.388Z,4.30
2023-05-09T10:58:54.577Z,4.60
2023-05-09T11:01:35.501Z,4.00
2023-05-09T11:04:09.003Z,4.10
2023-05-09T11:06:45.574Z,4.07
2023-05-09T11:09:33.023Z,3.72
2023-05-09T11:12:05.912Z,3.75
2023-05-09T11:14:35.721Z,3.60
2023-05-09T11:17:04.446Z,3.55
2023-05-09T11:19:47.347Z,3.83
2023-05-09T11:22:19.698Z,3.58
2023-05-09T11:24:47.936Z,3.08
2023-05-09T11:27:20.909Z,3.25
2023-05-09T11:29:52.645Z,3.20
2023-05-09T11:32:20.809Z,3.58
2023-05-09T11:34:47.604Z,3.58
2023-05-09T11:37:17.732Z,3.08
2023-05-09T11:40:00.290Z,4.40
2023-05-09T11:42:30.986Z,4.10
2023-05-09T11:44:58.908Z,3.33
2023-05-09T11:47:26.413Z,4.25
2023-05-09T11:49:53.071Z,3.78
2023-05-09T11:52:20.859Z,3.50
2023-05-09T11:54:47.690Z,3.78
2023-05-09T11:57:17.532Z,3.28
2023-05-09T11:59:45.530Z,2.85
2023-05-09T12:02:12.961Z,3.47
2023-05-09T12:04:39.695Z,3.92
2023-05-09T12:07:06.581Z,3.75
2023-05-09T12:09:35.504Z,3.58
2023-05-09T12:12:02.129Z,3.78
2023-05-09T12:14:31.028Z,3.22
2023-05-09T12:16:57.829Z,3.50
2023-05-09T12:19:28.396Z,3.63
2023-05-09T12:22:02.080Z,3.35
2023-05-09T12:24:30.297Z,3.05
2023-05-09T12:26:58.517Z,3.28
2023-05-09T12:29:27.111Z,2.90
2023-05-09T12:31:54.611Z,3.28
2023-05-09T12:34:21.531Z,2.88
2023-05-09T12:36:51.671Z,2.70
2023-05-09T12:39:19.498Z,2.47
2023-05-09T12:41:57.368Z,3.05
2023-05-09T12:44:29.813Z,3.10
2023-05-09T12:47:03.663Z,4.38
2023-05-09T12:49:31.985Z,3.47
2023-05-09T12:52:02.967Z,3.03
2023-05-09T12:54:31.152Z,2.60
2023-05-09T12:56:58.685Z,3.28
2023-05-09T12:59:29.289Z,2.67
2023-05-09T13:01:56.720Z,2.70
2023-05-09T13:04:24.719Z,3.33
2023-05-09T13:06:55.643Z,2.85
2023-05-09T13:09:23.523Z,3.20
2023-05-09T13:11:51.162Z,2.53
2023-05-09T13:14:19.521Z,2.90
2023-05-09T13:16:46.526Z,3.00
2023-05-09T13:19:13.551Z,2.78
2023-05-09T13:21:40.202Z,3.58
2023-05-09T13:24:07.095Z,2.95
2023-05-09T13:26:34.106Z,2.90
2023-05-09T13:29:00.848Z,3.15
2023-05-09T13:31:27.523Z,2.47
2023-05-09T13:33:54.120Z,2.85
2023-05-09T13:36:20.773Z,3.10
2023-05-09T13:38:47.446Z,3.28
2023-05-09T13:41:19.921Z,2.83
2023-05-09T13:43:46.618Z,3.25
2023-05-09T13:46:13.839Z,2.95
2023-05-09T13:48:40.512Z,3.00
2023-05-09T13:51:07.956Z,3.25
2023-05-09T13:53:36.749Z,2.97
2023-05-09T13:56:06.417Z,3.30
2023-05-09T13:58:33.008Z,2.70
2023-05-09T14:00:59.549Z,2.83
2023-05-09T14:03:26.671Z,2.92
2023-05-09T14:05:53.359Z,2.85
2023-05-09T14:08:21.378Z,2.67
2023-05-09T14:10:48.100Z,2.42
2023-05-09T14:13:15.667Z,2.30
2023-05-09T14:15:42.607Z,2.38
2023-05-09T14:18:09.201Z,2.83
2023-05-09T14:20:37.325Z,2.45
2023-05-09T14:23:03.945Z,2.78
2023-05-09T14:25:30.487Z,2.17
2023-05-09T14:27:58.037Z,2.97
2023-05-09T14:30:25.730Z,2.58
2023-05-09T14:32:52.365Z,2.22
2023-05-09T14:35:18.969Z,2.30
2023-05-09T14:37:45.643Z,1.75
2023-05-09T14:40:12.809Z,2.22
2023-05-09T14:42:39.464Z,1.67
2023-05-09T14:45:07.273Z,1.52
2023-05-09T14:47:34.350Z,1.58
2023-05-09T14:50:01.086Z,1.52
2023-05-09T14:52:28.804Z,1.42
2023-05-09T14:54:55.594Z,1.27
2023-05-09T14:57:22.326Z,1.50
2023-05-09T14:59:48.902Z,1.13
2023-05-09T15:02:15.489Z,1.20
2023-05-09T15:04:43.793Z,1.60
2023-05-09T15:07:11.743Z,1.42
2023-05-09T15:09:38.256Z,1.60
2023-05-09T15:12:04.989Z,1.65
2023-05-09T15:14:31.521Z,1.67
2023-05-09T15:17:01.453Z,1.98
2023-05-09T15:19:31.509Z,1.75
2023-05-09T15:21:59.770Z,1.85
2023-05-09T15:24:26.899Z,1.73
2023-05-09T15:26:54.326Z,1.70
2023-05-09T15:29:21.845Z,1.60
2023-05-09T15:31:49.008Z,1.90
2023-05-09T15:34:15.679Z,1.75
2023-05-09T15:36:42.305Z,1.42
2023-05-09T15:39:09.128Z,1.60
2023-05-09T15:41:35.674Z,1.15
2023-05-09T15:44:02.275Z,1.40
2023-05-09T15:46:29.816Z,1.55
2023-05-09T15:48:58.158Z,1.40
2023-05-09T15:51:25.003Z,1.50
2023-05-09T15:53:51.684Z,1.50
2023-05-09T15:56:18.263Z,1.92
2023-05-09T15:58:44.825Z,2.22
2023-05-09T16:01:13.433Z,1.80
2023-05-09T16:03:40.779Z,1.77
2023-05-09T16:06:07.594Z,2.00
2023-05-09T16:08:34.199Z,1.98
2023-05-09T16:11:01.895Z,2.00
2023-05-09T16:13:29.923Z,2.05
2023-05-09T16:15:56.909Z,2.55
2023-05-09T16:18:23.612Z,2.47
2023-05-09T16:20:50.572Z,2.45
2023-05-09T16:23:17.522Z,2.40
2023-05-09T16:25:44.990Z,2.75
2023-05-09T16:28:11.729Z,2.58
2023-05-09T16:30:38.281Z,2.28
2023-05-09T16:33:04.865Z,2.10
2023-05-09T16:35:31.524Z,2.08
2023-05-09T16:37:58.133Z,1.85
2023-05-09T16:40:24.803Z,2.20
2023-05-09T16:42:51.311Z,2.60
2023-05-09T16:45:17.833Z,2.03
2023-05-09T16:47:44.451Z,2.08
2023-05-09T16:50:11.136Z,2.10
2023-05-09T16:52:37.744Z,2.42
2023-05-09T16:55:04.608Z,1.92
2023-05-09T16:57:31.184Z,2.13
2023-05-09T16:59:58.528Z,2.08
2023-05-09T17:02:25.279Z,2.15
2023-05-09T17:04:51.989Z,2.10
2023-05-09T17:07:19.048Z,2.35
2023-05-09T17:09:45.674Z,2.30
2023-05-09T17:12:17.432Z,1.90
2023-05-09T17:14:50.160Z,1.75
2023-05-09T17:17:17.715Z,1.90
2023-05-09T17:19:44.825Z,2.05
2023-05-09T17:22:11.541Z,1.90
2023-05-09T17:24:38.103Z,1.95
2023-05-09T17:27:04.787Z,1.83
2023-05-09T17:29:31.463Z,1.98
2023-05-09T17:32:01.761Z,2.05
2023-05-09T17:34:29.038Z,2.13
2023-05-09T17:36:56.248Z,1.98
2023-05-09T17:39:23.173Z,2.28
2023-05-09T17:41:49.786Z,2.53
2023-05-09T17:44:16.676Z,2.05
2023-05-09T17:46:43.346Z,2.22
2023-05-09T17:49:13.887Z,2.08
2023-05-09T17:51:40.788Z,1.98
2023-05-09T17:54:07.482Z,1.80
2023-05-09T17:56:34.335Z,2.08
2023-05-09T17:59:01.600Z,1.67
2023-05-09T18:01:28.461Z,1.90
2023-05-09T18:03:55.223Z,2.15
2023-05-09T18:06:21.872Z,2.10
2023-05-09T18:08:48.474Z,1.85
2023-05-09T18:11:15.203Z,1.80
2023-05-09T18:13:41.811Z,1.92
2023-05-09T18:16:08.431Z,2.00
2023-05-09T18:18:36.551Z,2.30
2023-05-09T18:21:04.953Z,1.95
2023-05-09T18:23:31.538Z,1.95
2023-05-09T18:25:58.357Z,2.13
2023-05-09T18:28:25.836Z,2.00
2023-05-09T18:30:57.675Z,1.60
2023-05-09T18:33:26.575Z,1.50
2023-05-09T18:35:54.406Z,1.70
2023-05-09T18:38:21.620Z,1.40
2023-05-09T18:40:48.611Z,2.05
2023-05-09T18:43:16.622Z,1.63
2023-05-09T18:45:45.028Z,1.40
2023-05-09T18:48:11.648Z,1.52
2023-05-09T18:50:38.300Z,1.65
2023-05-09T18:53:04.991Z,1.30
2023-05-09T18:55:31.561Z,1.45
2023-05-09T18:57:58.137Z,1.30
2023-05-09T19:00:24.676Z,1.40
2023-05-09T19:02:51.653Z,1.10
2023-05-09T19:05:18.361Z,1.00
2023-05-09T19:07:44.984Z,0.98
2023-05-09T19:10:11.593Z,0.80
2023-05-09T19:12:38.538Z,1.00
2023-05-09T19:15:05.731Z,1.35
2023-05-09T19:17:32.825Z,1.20
2023-05-09T19:19:59.476Z,1.00
2023-05-09T19:22:26.042Z,0.93
2023-05-09T19:24:52.641Z,0.82
2023-05-09T19:27:19.222Z,0.77
2023-05-09T19:29:46.971Z,1.02
2023-05-09T19:32:15.307Z,1.00
2023-05-09T19:34:42.120Z,1.05
2023-05-09T19:37:08.818Z,1.30
2023-05-09T19:39:35.390Z,1.02
2023-05-09T19:42:01.956Z,1.33
2023-05-09T19:44:28.529Z,1.50
2023-05-09T19:46:58.375Z,1.40
2023-05-09T19:49:25.910Z,1.65
2023-05-09T19:51:52.422Z,1.50
2023-05-09T19:54:18.943Z,1.48
2023-05-09T19:56:45.503Z,1.38
2023-05-09T19:59:12.153Z,1.40
2023-05-09T20:01:38.804Z,1.40
2023-05-09T20:04:06.241Z,1.73
2023-05-09T20:06:47.764Z,1.48
2023-05-09T20:09:17.790Z,1.48
2023-05-09T20:11:44.381Z,1.30
2023-05-09T20:14:11.169Z,1.77
2023-05-09T20:16:37.881Z,1.90
2023-05-09T20:19:06.375Z,1.90
2023-05-09T20:21:33.489Z,2.20
2023-05-09T20:24:00.065Z,1.70
2023-05-09T20:26:28.153Z,1.70
2023-05-09T20:28:58.869Z,1.63
2023-05-09T20:31:25.511Z,1.58
2023-05-09T20:33:54.566Z,1.83
2023-05-09T20:36:21.282Z,1.80
2023-05-09T20:38:47.797Z,1.75
2023-05-09T20:41:14.311Z,1.73
2023-05-09T20:43:40.912Z,2.05
2023-05-09T20:46:07.488Z,1.92
2023-05-09T20:48:34.082Z,2.30
2023-05-09T20:51:00.615Z,2.08
2023-05-09T20:53:31.305Z,2.75
2023-05-09T20:56:04.241Z,2.53
2023-05-09T20:58:34.407Z,2.63
2023-05-09T21:01:01.089Z,2.42
2023-05-09T21:03:27.906Z,2.63
2023-05-09T21:05:54.611Z,2.63
2023-05-09T21:08:21.162Z,2.35
2023-05-09T21:10:50.501Z,2.42
2023-05-09T21:13:17.046Z,2.30
2023-05-09T21:15:43.749Z,2.85
2023-05-09T21:18:10.289Z,3.10
2023-05-09T21:20:36.812Z,2.63
2023-05-09T21:23:03.411Z,2.65
2023-05-09T21:25:29.977Z,3.10
2023-05-09T21:27:56.556Z,3.17
2023-05-09T21:30:23.129Z,3.08
2023-05-09T21:32:52.926Z,3.38
2023-05-09T21:35:19.801Z,4.32
2023-05-09T21:37:46.712Z,2.80
2023-05-09T21:40:13.816Z,3.03
2023-05-09T21:42:41.107Z,3.17
2023-05-09T21:45:08.235Z,2.75
2023-05-09T21:47:34.965Z,3.08
2023-05-09T21:50:01.624Z,3.25
2023-05-09T21:52:28.146Z,3.53
2023-05-09T21:54:54.705Z,3.58
2023-05-09T21:57:21.323Z,3.55
2023-05-09T21:59:47.832Z,3.58
2023-05-09T22:02:14.492Z,3.75
2023-05-09T22:04:41.056Z,4.72
2023-05-09T22:07:07.663Z,5.30
2023-05-09T22:09:34.236Z,4.30
2023-05-09T22:12:00.798Z,5.88
2023-05-09T22:14:27.316Z,5.57
2023-05-09T22:16:53.993Z,5.45
2023-05-09T22:19:20.535Z,5.15
2023-05-09T22:21:48.882Z,6.43
2023-05-09T22:24:15.462Z,5.15
2023-05-09T22:26:42.015Z,4.75
2023-05-09T22:29:08.602Z,5.50
2023-05-09T22:31:35.648Z,5.85
2023-05-09T22:34:02.183Z,5.72
2023-05-09T22:36:28.705Z,5.40
2023-05-09T22:38:55.212Z,6.55
2023-05-09T22:41:22.094Z,5.45
2023-05-09T22:43:48.645Z,7.18
2023-05-09T22:46:15.150Z,6.40
2023-05-09T22:48:41.862Z,6.40
2023-05-09T22:51:08.456Z,6.18
2023-05-09T22:53:34.982Z,6.38
2023-05-09T22:56:01.500Z,7.53
2023-05-09T22:58:28.057Z,7.55
2023-05-09T23:00:54.787Z,7.40
2023-05-09T23:03:21.752Z,7.60
2023-05-09T23:05:48.919Z,8.57
2023-05-09T23:08:16.003Z,7.85
2023-05-09T23:10:42.565Z,8.20
2023-05-09T23:13:09.208Z,8.13
2023-05-09T23:15:36.026Z,7.72
2023-05-09T23:18:03.216Z,8.30
2023-05-09T23:20:29.850Z,8.07
2023-05-09T23:22:56.419Z,8.95
2023-05-09T23:25:23.024Z,9.27
2023-05-09T23:27:49.551Z,9.52
2023-05-09T23:30:16.338Z,10.13
2023-05-09T23:32:43.224Z,10.13
2023-05-09T23:35:10.588Z,11.70
2023-05-09T23:37:37.211Z,10.73
2023-05-09T23:40:04.765Z,11.35
2023-05-09T23:42:31.455Z,12.00
2023-05-09T23:44:58.069Z,11.13
2023-05-09T23:47:24.751Z,11.10
2023-05-09T23:49:51.260Z,11.32
2023-05-09T23:52:17.818Z,10.32
2023-05-09T23:54:44.386Z,12.35
2023-05-09T23:57:10.939Z,11.82
2023-05-09T23:59:37.512Z,11.38
